createdAt,value
2019-01-30T00:00:53.988Z,9.00
2019-01-30T00:03:22.392Z,8.60
2019-01-30T00:05:50.861Z,8.23
2019-01-30T00:08:19.261Z,8.50
2019-01-30T00:10:47.663Z,8.10
2019-01-30T00:13:16.062Z,8.57
2019-01-30T00:15:44.472Z,8.57
2019-01-30T00:18:13.023Z,8.17
2019-01-30T00:20:41.437Z,8.40
2019-01-30T00:23:09.845Z,8.00
2019-01-30T00:25:38.245Z,8.07
2019-01-30T00:28:07.133Z,8.50
2019-01-30T00:30:35.556Z,9.23
2019-01-30T00:33:04.127Z,7.60
2019-01-30T00:35:32.515Z,7.60
2019-01-30T00:38:00.968Z,8.43
2019-01-30T00:40:29.497Z,7.93
2019-01-30T00:42:57.903Z,7.87
2019-01-30T00:45:26.383Z,7.97
2019-01-30T00:47:54.861Z,8.53
2019-01-30T00:50:24.422Z,7.80
2019-01-30T00:52:53.115Z,8.70
2019-01-30T00:55:21.520Z,8.33
2019-01-30T00:57:49.980Z,8.10
2019-01-30T01:00:23.724Z,8.13
2019-01-30T01:02:52.689Z,8.23
2019-01-30T01:05:21.329Z,8.37
2019-01-30T01:07:49.833Z,8.23
2019-01-30T01:10:20.568Z,8.47
2019-01-30T01:12:49.157Z,8.17
2019-01-30T01:15:17.804Z,8.50
2019-01-30T01:17:46.380Z,8.43
2019-01-30T01:20:17.937Z,9.07
2019-01-30T01:22:46.475Z,8.60
2019-01-30T01:25:16.565Z,9.00
2019-01-30T01:27:45.116Z,8.93
2019-01-30T01:30:25.181Z,8.80
2019-01-30T01:32:52.500Z,9.37
2019-01-30T01:35:21.474Z,9.33
2019-01-30T01:37:49.885Z,9.20
2019-01-30T01:40:18.460Z,9.53
2019-01-30T01:42:47.028Z,9.50
2019-01-30T01:45:23.510Z,9.40
2019-01-30T01:47:52.081Z,9.20
2019-01-30T01:50:21.918Z,9.73
2019-01-30T01:52:50.333Z,9.70
2019-01-30T01:55:18.825Z,10.00
2019-01-30T01:57:47.253Z,9.53
2019-01-30T02:00:20.659Z,9.13
2019-01-30T02:02:49.354Z,9.57
2019-01-30T02:05:20.848Z,10.83
2019-01-30T02:07:49.344Z,10.17
2019-01-30T02:10:19.996Z,10.20
2019-01-30T02:12:48.518Z,10.03
2019-01-30T02:15:22.579Z,10.87
2019-01-30T02:17:51.628Z,9.83
2019-01-30T02:20:22.571Z,11.17
2019-01-30T02:22:51.211Z,10.93
2019-01-30T02:25:19.638Z,10.23
2019-01-30T02:27:48.141Z,11.27
2019-01-30T02:30:22.182Z,11.53
2019-01-30T02:32:50.583Z,10.57
2019-01-30T02:35:19.033Z,10.43
2019-01-30T02:37:47.492Z,10.03
2019-01-30T02:40:18.028Z,9.80
2019-01-30T02:42:46.652Z,10.17
2019-01-30T02:45:17.204Z,10.33
2019-01-30T02:47:46.147Z,9.97
2019-01-30T02:50:16.519Z,10.13
2019-01-30T02:52:45.264Z,9.80
2019-01-30T02:55:18.648Z,9.73
2019-01-30T02:57:47.231Z,10.57
2019-01-30T03:00:27.502Z,9.70
2019-01-30T03:02:55.973Z,9.23
2019-01-30T03:05:24.448Z,9.83
2019-01-30T03:07:52.862Z,9.70
2019-01-30T03:10:23.141Z,10.00
2019-01-30T03:12:51.641Z,9.80
2019-01-30T03:15:20.976Z,9.83
2019-01-30T03:17:49.516Z,10.27
2019-01-30T03:20:23.142Z,10.73
2019-01-30T03:22:51.614Z,10.17
2019-01-30T03:25:21.776Z,10.07
2019-01-30T03:27:50.197Z,9.67
2019-01-30T03:30:27.564Z,10.53
2019-01-30T03:32:55.970Z,10.40
2019-01-30T03:35:24.391Z,10.43
2019-01-30T03:37:52.833Z,9.67
2019-01-30T03:40:21.689Z,10.67
2019-01-30T03:42:51.300Z,11.43
2019-01-30T03:45:22.295Z,10.23
2019-01-30T03:47:51.014Z,10.50
2019-01-30T03:50:19.643Z,10.20
2019-01-30T03:52:48.206Z,10.87
2019-01-30T03:55:18.239Z,10.63
2019-01-30T03:57:46.807Z,10.80
2019-01-30T04:00:17.705Z,10.83
2019-01-30T04:02:46.136Z,9.97
2019-01-30T04:05:14.776Z,10.43
2019-01-30T04:07:43.187Z,11.07
2019-01-30T04:10:14.907Z,11.23
2019-01-30T04:12:43.339Z,10.47
2019-01-30T04:15:11.883Z,10.67
2019-01-30T04:17:40.295Z,11.23
2019-01-30T04:20:11.898Z,10.53
2019-01-30T04:22:40.319Z,10.83
2019-01-30T04:25:09.885Z,10.63
2019-01-30T04:27:38.415Z,11.37
2019-01-30T04:30:18.103Z,11.97
2019-01-30T04:32:46.559Z,10.23
2019-01-30T04:35:15.125Z,11.23
2019-01-30T04:37:43.553Z,10.97
2019-01-30T04:40:14.502Z,11.83
2019-01-30T04:42:42.907Z,12.13
2019-01-30T04:45:14.243Z,11.07
2019-01-30T04:47:42.671Z,11.57
2019-01-30T04:50:11.148Z,11.77
2019-01-30T04:52:39.637Z,11.40
2019-01-30T04:55:09.478Z,12.20
2019-01-30T04:57:38.014Z,12.70
2019-01-30T05:00:12.626Z,11.53
2019-01-30T05:02:41.048Z,12.07
2019-01-30T05:05:11.196Z,11.43
2019-01-30T05:07:39.671Z,11.60
2019-01-30T05:10:10.682Z,11.43
2019-01-30T05:12:39.743Z,10.43
2019-01-30T05:15:11.379Z,10.83
2019-01-30T05:17:39.845Z,11.23
2019-01-30T05:20:11.505Z,11.17
2019-01-30T05:22:40.139Z,10.63
2019-01-30T05:25:09.972Z,11.10
2019-01-30T05:27:38.397Z,11.30
2019-01-30T05:30:25.118Z,11.40
2019-01-30T05:32:53.572Z,11.60
2019-01-30T05:35:22.044Z,12.87
2019-01-30T05:37:51.442Z,12.47
2019-01-30T05:40:21.790Z,12.50
2019-01-30T05:42:50.269Z,12.03
2019-01-30T05:45:19.132Z,10.60
2019-01-30T05:47:47.612Z,11.90
2019-01-30T05:50:16.072Z,10.73
2019-01-30T05:52:45.032Z,12.13
2019-01-30T05:55:15.751Z,10.80
2019-01-30T05:57:44.587Z,11.07
2019-01-30T06:00:18.629Z,10.80
2019-01-30T06:02:47.031Z,10.97
2019-01-30T06:05:16.580Z,11.43
2019-01-30T06:07:45.628Z,11.30
2019-01-30T06:10:14.096Z,11.20
2019-01-30T06:12:42.764Z,10.77
2019-01-30T06:15:14.250Z,10.63
2019-01-30T06:17:42.700Z,11.10
2019-01-30T06:20:14.233Z,10.47
2019-01-30T06:22:42.649Z,10.33
2019-01-30T06:25:11.208Z,11.67
2019-01-30T06:27:39.619Z,11.03
2019-01-30T06:30:11.442Z,10.43
2019-01-30T06:32:39.844Z,11.27
2019-01-30T06:35:08.413Z,10.87
2019-01-30T06:37:36.891Z,11.10
2019-01-30T06:40:13.966Z,11.13
2019-01-30T06:42:42.376Z,10.70
2019-01-30T06:45:10.879Z,11.23
2019-01-30T06:47:39.289Z,12.20
2019-01-30T06:50:10.801Z,11.33
2019-01-30T06:52:39.210Z,11.00
2019-01-30T06:55:07.932Z,10.80
2019-01-30T06:57:36.403Z,11.07
2019-01-30T07:00:16.991Z,10.40
2019-01-30T07:02:51.407Z,10.50
2019-01-30T07:05:20.065Z,11.73
2019-01-30T07:07:48.568Z,11.43
2019-01-30T07:10:19.794Z,11.07
2019-01-30T07:12:48.221Z,11.37
2019-01-30T07:15:16.801Z,11.80
2019-01-30T07:17:45.481Z,11.00
2019-01-30T07:20:15.499Z,11.10
2019-01-30T07:22:44.545Z,11.43
2019-01-30T07:25:18.308Z,11.07
2019-01-30T07:27:46.891Z,11.63
2019-01-30T07:30:20.544Z,10.73
2019-01-30T07:32:49.289Z,11.03
2019-01-30T07:35:17.848Z,11.67
2019-01-30T07:37:46.330Z,11.00
2019-01-30T07:40:16.197Z,10.93
2019-01-30T07:42:44.704Z,11.43
2019-01-30T07:45:23.248Z,11.47
2019-01-30T07:47:51.702Z,10.33
2019-01-30T07:50:20.604Z,10.73
2019-01-30T07:52:49.083Z,10.87
2019-01-30T07:55:17.936Z,10.67
2019-01-30T07:57:46.524Z,10.53
2019-01-30T08:00:21.534Z,11.10
2019-01-30T08:02:53.346Z,10.67
2019-01-30T08:05:22.625Z,10.57
2019-01-30T08:07:50.724Z,10.60
2019-01-30T08:10:19.172Z,10.87
2019-01-30T08:12:47.623Z,10.60
2019-01-30T08:15:18.531Z,10.20
2019-01-30T08:17:47.104Z,10.87
2019-01-30T08:20:18.147Z,10.53
2019-01-30T08:22:48.371Z,10.30
2019-01-30T08:25:20.036Z,10.37
2019-01-30T08:27:49.559Z,10.83
2019-01-30T08:30:22.548Z,9.87
2019-01-30T08:32:51.887Z,10.07
2019-01-30T08:35:22.706Z,11.43
2019-01-30T08:37:52.579Z,10.87
2019-01-30T08:40:21.391Z,11.10
2019-01-30T08:42:52.134Z,10.03
2019-01-30T08:45:26.595Z,10.43
2019-01-30T08:47:55.401Z,10.90
2019-01-30T08:50:24.218Z,9.83
2019-01-30T08:52:52.968Z,11.50
2019-01-30T08:55:21.712Z,10.17
2019-01-30T08:57:50.870Z,10.57
2019-01-30T09:00:25.041Z,10.20
2019-01-30T09:02:53.910Z,10.30
2019-01-30T09:05:22.723Z,10.03
2019-01-30T09:07:51.494Z,9.53
2019-01-30T09:10:22.094Z,10.33
2019-01-30T09:12:50.913Z,9.63
2019-01-30T09:15:21.112Z,10.50
2019-01-30T09:17:49.645Z,10.37
2019-01-30T09:20:21.021Z,10.33
2019-01-30T09:22:49.426Z,10.93
2019-01-30T09:25:20.577Z,11.10
2019-01-30T09:27:49.636Z,10.23
2019-01-30T09:30:20.853Z,10.17
2019-01-30T09:32:49.351Z,9.80
2019-01-30T09:35:19.788Z,10.33
2019-01-30T09:37:48.327Z,10.27
2019-01-30T09:40:21.250Z,10.03
2019-01-30T09:42:51.363Z,10.73
2019-01-30T09:45:21.007Z,11.10
2019-01-30T09:47:49.541Z,11.30
2019-01-30T09:50:21.096Z,11.43
2019-01-30T09:52:50.042Z,10.63
2019-01-30T09:55:18.697Z,10.43
2019-01-30T09:57:47.169Z,11.23
2019-01-30T10:00:24.233Z,11.33
2019-01-30T10:02:52.667Z,11.87
2019-01-30T10:05:21.264Z,11.63
2019-01-30T10:07:49.771Z,11.07
2019-01-30T10:10:24.151Z,12.10
2019-01-30T10:12:52.618Z,11.67
2019-01-30T10:15:24.129Z,10.63
2019-01-30T10:17:52.549Z,12.57
2019-01-30T10:20:23.331Z,11.73
2019-01-30T10:22:51.829Z,11.83
2019-01-30T10:25:20.693Z,11.43
2019-01-30T10:27:49.200Z,11.97
2019-01-30T10:30:28.644Z,12.17
2019-01-30T10:32:57.187Z,12.47
2019-01-30T10:35:26.025Z,11.90
2019-01-30T10:37:54.445Z,11.77
2019-01-30T10:40:23.720Z,11.97
2019-01-30T10:42:53.049Z,12.20
2019-01-30T10:45:22.127Z,12.27
2019-01-30T10:47:50.556Z,13.00
2019-01-30T10:50:29.015Z,11.80
2019-01-30T10:52:57.390Z,11.33
2019-01-30T10:55:28.428Z,11.40
2019-01-30T10:57:58.906Z,11.67
2019-01-30T11:00:32.971Z,12.10
2019-01-30T11:03:01.694Z,11.93
2019-01-30T11:05:30.112Z,12.17
2019-01-30T11:07:58.543Z,11.30
2019-01-30T11:10:26.951Z,11.10
2019-01-30T11:12:55.428Z,12.03
2019-01-30T11:15:27.511Z,11.03
2019-01-30T11:17:58.029Z,10.47
2019-01-30T11:20:27.484Z,10.90
2019-01-30T11:22:55.911Z,10.20
2019-01-30T11:25:29.842Z,10.90
2019-01-30T11:27:58.360Z,11.80
2019-01-30T11:30:28.255Z,11.07
2019-01-30T11:32:56.930Z,10.50
2019-01-30T11:35:25.407Z,11.10
2019-01-30T11:37:53.826Z,10.13
2019-01-30T11:40:24.060Z,10.43
2019-01-30T11:42:52.471Z,11.43
2019-01-30T11:45:30.040Z,11.33
2019-01-30T11:47:58.431Z,11.07
2019-01-30T11:50:27.584Z,11.00
2019-01-30T11:52:57.184Z,10.80
2019-01-30T11:55:25.746Z,10.80
2019-01-30T11:57:54.159Z,10.60
2019-01-30T12:00:30.288Z,10.37
2019-01-30T12:02:59.750Z,10.63
2019-01-30T12:05:28.149Z,10.10
2019-01-30T12:07:56.643Z,10.77
2019-01-30T12:10:25.197Z,10.97
2019-01-30T12:12:53.720Z,11.17
2019-01-30T12:15:28.956Z,10.47
2019-01-30T12:17:57.441Z,10.50
2019-01-30T12:20:25.938Z,10.97
2019-01-30T12:22:54.333Z,10.70
2019-01-30T12:25:23.392Z,10.50
2019-01-30T12:27:51.834Z,10.80
2019-01-30T12:30:28.912Z,10.77
2019-01-30T12:32:58.002Z,10.03
2019-01-30T12:35:26.731Z,10.40
2019-01-30T12:37:55.156Z,10.40
2019-01-30T12:40:26.813Z,9.67
2019-01-30T12:42:55.378Z,9.87
2019-01-30T12:45:31.863Z,9.97
2019-01-30T12:48:00.280Z,9.80
2019-01-30T12:50:29.004Z,10.87
2019-01-30T12:52:57.445Z,10.77
2019-01-30T12:55:25.984Z,10.60
2019-01-30T12:57:54.385Z,9.87
2019-01-30T13:00:28.425Z,9.93
2019-01-30T13:02:56.846Z,9.63
2019-01-30T13:05:26.409Z,10.17
2019-01-30T13:07:55.063Z,10.20
2019-01-30T13:10:23.535Z,10.17
2019-01-30T13:12:52.016Z,9.73
2019-01-30T13:15:23.042Z,10.67
2019-01-30T13:17:51.570Z,9.87
2019-01-30T13:20:21.654Z,10.40
2019-01-30T13:22:50.213Z,10.00
2019-01-30T13:25:27.019Z,10.70
2019-01-30T13:27:55.495Z,9.10
2019-01-30T13:30:29.750Z,10.30
2019-01-30T13:32:58.174Z,10.30
2019-01-30T13:35:26.711Z,9.67
2019-01-30T13:37:56.500Z,9.77
2019-01-30T13:40:32.949Z,10.23
2019-01-30T13:43:01.399Z,10.27
2019-01-30T13:45:30.544Z,9.47
2019-01-30T13:48:00.964Z,10.40
2019-01-30T13:50:30.056Z,10.13
2019-01-30T13:52:58.609Z,9.53
2019-01-30T13:55:27.522Z,10.00
2019-01-30T13:57:56.001Z,9.30
2019-01-30T14:00:30.204Z,9.97
2019-01-30T14:02:58.899Z,10.67
2019-01-30T14:05:27.416Z,10.67
2019-01-30T14:07:56.860Z,9.63
2019-01-30T14:10:27.133Z,10.03
2019-01-30T14:12:55.730Z,9.53
2019-01-30T14:15:26.721Z,10.30
2019-01-30T14:17:55.148Z,9.77
2019-01-30T14:20:23.643Z,10.00
2019-01-30T14:22:52.224Z,9.80
2019-01-30T14:25:20.759Z,10.20
2019-01-30T14:27:49.294Z,9.90
2019-01-30T14:30:32.385Z,10.43
2019-01-30T14:33:00.986Z,9.87
2019-01-30T14:35:31.713Z,10.73
2019-01-30T14:38:00.207Z,9.50
2019-01-30T14:40:28.619Z,10.07
2019-01-30T14:42:57.188Z,11.03
2019-01-30T14:45:25.616Z,10.97
2019-01-30T14:47:54.182Z,10.63
2019-01-30T14:50:27.530Z,10.13
2019-01-30T14:52:55.980Z,11.13
2019-01-30T14:55:24.500Z,11.00
2019-01-30T14:57:54.258Z,10.00
2019-01-30T15:00:33.054Z,11.33
2019-01-30T15:03:01.607Z,11.13
2019-01-30T15:05:30.447Z,11.43
2019-01-30T15:07:59.125Z,11.27
2019-01-30T15:10:29.547Z,11.23
2019-01-30T15:12:58.127Z,12.77
2019-01-30T15:15:28.621Z,11.23
2019-01-30T15:17:57.108Z,11.80
2019-01-30T15:20:27.657Z,10.43
2019-01-30T15:22:56.723Z,11.47
2019-01-30T15:25:25.515Z,11.03
2019-01-30T15:27:57.008Z,10.90
2019-01-30T15:30:37.216Z,10.97
2019-01-30T15:33:06.164Z,10.43
2019-01-30T15:35:34.583Z,11.10
2019-01-30T15:38:04.939Z,11.13
2019-01-30T15:40:33.418Z,11.10
2019-01-30T15:43:01.850Z,10.67
2019-01-30T15:45:30.584Z,12.30
2019-01-30T15:47:59.058Z,10.63
2019-01-30T15:50:30.270Z,11.30
2019-01-30T15:52:59.412Z,11.40
2019-01-30T15:55:27.964Z,11.50
2019-01-30T15:58:02.383Z,11.93
2019-01-30T16:00:41.481Z,12.47
2019-01-30T16:03:09.896Z,12.43
2019-01-30T16:08:35.583Z,12.87
2019-01-30T16:11:04.424Z,12.97
2019-01-30T16:13:32.919Z,12.87
2019-01-30T16:16:03.254Z,13.80
2019-01-30T16:18:31.721Z,14.47
2019-01-30T16:21:14.221Z,14.47
2019-01-30T16:23:42.900Z,12.90
2019-01-30T16:26:11.304Z,13.10
2019-01-30T16:28:39.828Z,14.57
2019-01-30T16:31:08.211Z,14.87
2019-01-30T16:33:36.616Z,13.30
2019-01-30T16:36:05.188Z,13.50
2019-01-30T16:38:33.678Z,12.70
2019-01-30T16:41:52.975Z,12.63
2019-01-30T16:44:21.467Z,13.63
2019-01-30T16:46:49.872Z,15.33
2019-01-30T16:49:18.272Z,16.90
2019-01-30T16:51:46.680Z,15.67
2019-01-30T16:54:15.075Z,16.40
2019-01-30T16:56:43.491Z,18.33
2019-01-30T16:59:11.891Z,18.97
2019-01-30T17:01:40.936Z,16.93
2019-01-30T17:04:09.328Z,17.23
2019-01-30T17:06:37.736Z,17.37
2019-01-30T17:09:07.829Z,17.10
2019-01-30T17:11:36.222Z,16.97
2019-01-30T17:14:04.960Z,17.53
2019-01-30T17:16:33.360Z,19.60
2019-01-30T17:19:01.829Z,18.20
2019-01-30T17:21:30.512Z,17.73
2019-01-30T17:23:58.990Z,20.03
2019-01-30T17:26:27.508Z,19.47
2019-01-30T17:28:55.945Z,19.63
2019-01-30T17:31:25.014Z,20.33
2019-01-30T17:33:53.423Z,19.90
2019-01-30T17:36:21.923Z,20.47
2019-01-30T17:38:50.449Z,19.67
2019-01-30T17:41:18.873Z,20.90
2019-01-30T17:43:47.272Z,20.97
2019-01-30T17:46:16.348Z,20.20
2019-01-30T17:48:44.766Z,20.20
2019-01-30T17:51:13.187Z,19.77
2019-01-30T17:53:41.672Z,20.33
2019-01-30T17:56:10.070Z,20.50
2019-01-30T17:58:38.475Z,21.43
2019-01-30T18:01:07.156Z,24.03
2019-01-30T18:03:35.966Z,22.77
2019-01-30T18:06:05.463Z,22.63
2019-01-30T18:08:33.944Z,21.83
2019-01-30T18:11:02.716Z,21.17
2019-01-30T18:13:31.183Z,21.37
2019-01-30T18:15:59.599Z,20.70
2019-01-30T18:18:28.017Z,21.20
2019-01-30T18:20:56.447Z,22.07
2019-01-30T18:23:24.841Z,22.07
2019-01-30T18:25:53.330Z,22.03
2019-01-30T18:28:21.749Z,20.37
2019-01-30T18:30:50.244Z,21.00
2019-01-30T18:33:18.646Z,21.20
2019-01-30T18:35:47.084Z,21.63
2019-01-30T18:38:15.642Z,21.63
2019-01-30T18:40:44.054Z,21.10
2019-01-30T18:43:12.448Z,22.60
2019-01-30T18:45:40.854Z,23.50
2019-01-30T18:48:09.341Z,24.47
2019-01-30T18:50:37.800Z,24.63
2019-01-30T18:53:06.397Z,24.93
2019-01-30T18:55:34.811Z,23.83
2019-01-30T18:58:03.280Z,23.93
2019-01-30T19:00:34.703Z,24.27
2019-01-30T19:03:04.852Z,24.40
2019-01-30T19:05:33.782Z,25.10
2019-01-30T19:08:02.339Z,24.67
2019-01-30T19:14:13.583Z,25.47
2019-01-30T19:16:42.118Z,26.17
2019-01-30T19:19:10.913Z,27.20
2019-01-30T19:21:39.470Z,27.60
2019-01-30T19:24:07.973Z,27.20
2019-01-30T19:26:36.473Z,28.43
2019-01-30T19:29:05.153Z,29.87
2019-01-30T19:31:33.748Z,30.57
2019-01-30T19:34:02.408Z,30.63
2019-01-30T19:36:31.218Z,30.67
2019-01-30T19:38:59.721Z,31.17
2019-01-30T19:41:28.286Z,30.47
2019-01-30T19:43:56.809Z,30.30
2019-01-30T19:46:25.344Z,31.10
2019-01-30T19:48:53.884Z,30.87
2019-01-30T19:51:22.656Z,30.53
2019-01-30T19:53:51.213Z,31.87
2019-01-30T19:56:20.044Z,31.93
2019-01-30T19:58:48.496Z,30.77
2019-01-30T20:01:16.955Z,31.87
2019-01-30T20:03:45.432Z,29.83
2019-01-30T20:06:14.081Z,31.13
2019-01-30T20:08:42.596Z,29.47
2019-01-30T20:11:11.220Z,30.90
2019-01-30T20:13:39.638Z,30.23
2019-01-30T20:16:08.183Z,32.60
2019-01-30T20:18:36.683Z,31.00
2019-01-30T20:21:05.467Z,32.30
2019-01-30T20:23:33.909Z,31.27
2019-01-30T20:26:02.319Z,33.73
2019-01-30T20:28:30.820Z,31.93
2019-01-30T20:31:01.209Z,32.00
2019-01-30T20:33:29.456Z,30.33
2019-01-30T20:35:57.931Z,31.30
2019-01-30T20:38:26.415Z,32.70
2019-01-30T20:40:56.072Z,31.37
2019-01-30T20:43:24.472Z,32.60
2019-01-30T20:45:52.888Z,31.47
2019-01-30T20:48:21.400Z,32.67
2019-01-30T20:50:49.888Z,30.40
2019-01-30T20:53:18.278Z,32.50
2019-01-30T20:55:48.068Z,33.50
2019-01-30T20:58:16.463Z,32.93
2019-01-30T21:00:45.547Z,31.83
2019-01-30T21:03:13.964Z,32.63
2019-01-30T21:05:44.859Z,31.20
2019-01-30T21:08:12.535Z,30.77
2019-01-30T21:10:41.127Z,30.47
2019-01-30T21:13:09.609Z,30.90
2019-01-30T21:15:38.270Z,30.23
2019-01-30T21:18:06.928Z,31.53
2019-01-30T21:20:36.000Z,31.83
2019-01-30T21:23:04.759Z,32.13
2019-01-30T21:25:33.288Z,31.97
2019-01-30T21:28:03.451Z,32.03
2019-01-30T21:30:37.510Z,31.43
2019-01-30T21:33:06.183Z,32.40
2019-01-30T21:35:34.825Z,32.50
2019-01-30T21:38:06.252Z,32.73
2019-01-30T21:40:34.884Z,31.67
2019-01-30T21:43:03.337Z,31.33
2019-01-30T21:45:31.803Z,34.17
2019-01-30T21:48:00.221Z,31.50
2019-01-30T21:50:28.625Z,32.80
2019-01-30T21:52:57.040Z,31.97
2019-01-30T21:55:25.831Z,33.23
2019-01-30T21:57:54.240Z,32.00
2019-01-30T22:00:25.175Z,31.67
2019-01-30T22:02:53.720Z,31.80
2019-01-30T22:05:22.692Z,33.03
2019-01-30T22:08:00.534Z,32.87
2019-01-30T22:10:23.861Z,31.60
2019-01-30T22:12:52.339Z,33.63
2019-01-30T22:15:20.858Z,31.10
2019-01-30T22:17:49.279Z,30.40
2019-01-30T22:20:25.342Z,30.93
2019-01-30T22:22:54.009Z,30.93
2019-01-30T22:25:23.958Z,31.57
2019-01-30T22:27:52.677Z,30.13
2019-01-30T22:30:25.955Z,30.20
2019-01-30T22:32:54.444Z,31.37
2019-01-30T22:35:22.853Z,31.23
2019-01-30T22:37:51.264Z,30.37
2019-01-30T22:40:19.667Z,29.13
2019-01-30T22:42:48.138Z,29.20
2019-01-30T22:45:19.149Z,28.63
2019-01-30T22:47:47.715Z,28.33
2019-01-30T22:50:17.874Z,28.57
2019-01-30T22:52:46.241Z,27.67
2019-01-30T22:55:17.906Z,26.60
2019-01-30T22:57:46.481Z,27.67
2019-01-30T23:00:26.731Z,25.67
2019-01-30T23:02:55.237Z,24.77
2019-01-30T23:05:29.602Z,24.53
2019-01-30T23:07:58.073Z,23.23
2019-01-30T23:10:51.896Z,23.67
2019-01-30T23:13:32.343Z,22.37
2019-01-30T23:16:09.449Z,21.83
2019-01-30T23:18:46.616Z,20.80
2019-01-30T23:21:21.049Z,19.13
2019-01-30T23:24:04.583Z,19.13
2019-01-30T23:26:39.141Z,19.00
2019-01-30T23:29:32.113Z,17.77
2019-01-30T23:32:11.179Z,17.20
2019-01-30T23:34:57.527Z,16.20
2019-01-30T23:37:47.294Z,17.20
2019-01-30T23:40:21.382Z,17.13
2019-01-30T23:42:55.379Z,16.10
2019-01-30T23:45:44.696Z,15.77
2019-01-30T23:48:25.235Z,16.57
2019-01-30T23:50:56.726Z,17.37
2019-01-30T23:53:31.072Z,16.40
2019-01-30T23:56:11.441Z,16.63
2019-01-30T23:58:59.638Z,17.23
